Time;durP1;ratioP1;P1;durP2;ratioP2;P2;SDS_P1;SDS_P2;PMS_P1;PMS_P2;Temp;Humidity;BMP_temperature;BMP_pressure;BME280_temperature;BME280_humidity;BME280_pressure;Samples;Min_cycle;Max_cycle;Signal;HPM_P1;HPM_P2
2023/07/17 00:01:38;;;;;;;10.93;4.75;;;18.40;99.90;;;;;;5041795;28;20036;-69
2023/07/17 00:04:04;;;;;;;10.35;5.18;;;18.40;99.90;;;;;;5041485;28;20061;-69
2023/07/17 00:06:30;;;;;;;9.48;5.30;;;18.30;99.90;;;;;;5041186;28;20025;-69
2023/07/17 00:08:56;;;;;;;8.68;5.25;;;18.30;99.90;;;;;;5041778;28;20036;-68
2023/07/17 00:11:21;;;;;;;9.60;5.03;;;18.30;99.90;;;;;;5041219;28;20033;-68
2023/07/17 00:13:47;;;;;;;10.82;5.45;;;18.30;99.90;;;;;;5043322;28;20428;-68
2023/07/17 00:16:13;;;;;;;11.30;4.90;;;18.30;99.90;;;;;;5045147;28;20048;-68
2023/07/17 00:18:38;;;;;;;9.40;4.90;;;18.30;99.90;;;;;;5044782;28;20100;-68
2023/07/17 00:21:05;;;;;;;10.27;4.57;;;18.20;99.90;;;;;;5044814;28;20028;-68
2023/07/17 00:23:31;;;;;;;9.38;4.82;;;18.20;99.90;;;;;;5045150;28;20041;-69
2023/07/17 00:25:57;;;;;;;11.27;5.05;;;18.20;99.90;;;;;;5044211;28;20079;-69
2023/07/17 00:28:23;;;;;;;11.43;4.63;;;18.20;99.90;;;;;;5043656;28;20068;-68
2023/07/17 00:30:48;;;;;;;11.68;4.82;;;18.10;99.90;;;;;;5044862;28;20067;-68
2023/07/17 00:33:14;;;;;;;11.15;5.00;;;18.20;99.90;;;;;;5044512;28;20021;-70
2023/07/17 00:35:40;;;;;;;9.18;4.75;;;18.20;99.90;;;;;;5044932;28;20029;-69
2023/07/17 00:38:05;;;;;;;7.47;4.60;;;18.10;99.90;;;;;;5044334;28;20041;-69
2023/07/17 00:40:31;;;;;;;10.50;4.60;;;18.10;99.90;;;;;;5044626;28;20047;-71
2023/07/17 00:42:58;;;;;;;7.65;4.35;;;18.10;99.90;;;;;;5044546;28;20018;-69
2023/07/17 00:45:30;;;;;;;8.10;4.40;;;18.10;99.90;;;;;;5044504;28;20018;-69
2023/07/17 00:47:56;;;;;;;12.82;4.97;;;18.10;99.90;;;;;;5044672;28;20029;-69
2023/07/17 00:50:22;;;;;;;11.90;4.80;;;18.10;99.90;;;;;;5044447;28;20113;-69
2023/07/17 00:52:48;;;;;;;11.13;5.00;;;18.10;99.90;;;;;;5044080;28;20112;-69
2023/07/17 00:55:14;;;;;;;10.68;4.93;;;18.10;99.90;;;;;;5044190;28;20085;-68
2023/07/17 00:57:40;;;;;;;9.95;4.93;;;18.10;99.90;;;;;;5044343;28;20029;-68
2023/07/17 01:00:08;;;;;;;10.20;4.85;;;18.10;99.90;;;;;;5044087;28;20494;-68
2023/07/17 01:02:39;;;;;;;14.40;5.32;;;18.10;99.90;;;;;;5044037;28;20068;-69
2023/07/17 01:05:05;;;;;;;7.90;4.70;;;18.00;99.90;;;;;;5043923;28;20083;-67
2023/07/17 01:07:31;;;;;;;9.75;4.95;;;18.00;99.90;;;;;;5043863;28;20040;-68
2023/07/17 01:09:56;;;;;;;12.30;4.93;;;18.00;99.90;;;;;;5042719;28;20060;-68
2023/07/17 01:12:22;;;;;;;13.68;5.00;;;18.00;99.90;;;;;;5043989;28;20041;-68
2023/07/17 01:14:47;;;;;;;9.25;5.07;;;18.00;99.90;;;;;;5043737;28;20077;-68
2023/07/17 01:17:13;;;;;;;11.38;5.15;;;18.00;99.90;;;;;;5043899;28;20055;-67
2023/07/17 01:19:38;;;;;;;12.57;5.95;;;18.00;99.90;;;;;;5043932;28;20028;-68
2023/07/17 01:22:29;;;;;;;13.13;5.63;;;18.00;99.90;;;;;;5043759;28;20037;-70
2023/07/17 01:24:54;;;;;;;15.23;5.60;;;18.00;99.90;;;;;;5043484;28;20037;-69
2023/07/17 01:27:20;;;;;;;12.38;5.85;;;18.00;99.90;;;;;;5043538;28;20029;-68
2023/07/17 01:29:46;;;;;;;13.85;5.22;;;18.00;99.90;;;;;;5043694;28;20580;-69
2023/07/17 01:32:12;;;;;;;17.65;5.82;;;18.00;99.90;;;;;;5043734;28;20032;-69
2023/07/17 01:34:38;;;;;;;15.15;5.50;;;18.00;99.90;;;;;;5043374;28;20022;-70
2023/07/17 01:37:05;;;;;;;13.77;5.68;;;18.00;99.90;;;;;;5043554;28;20030;-69
2023/07/17 01:39:30;;;;;;;12.98;5.60;;;18.00;99.90;;;;;;5043320;28;20033;-69
2023/07/17 01:41:56;;;;;;;13.60;4.68;;;18.00;99.90;;;;;;5043296;28;20064;-68
2023/07/17 01:44:27;;;;;;;13.20;5.30;;;18.00;99.90;;;;;;5043450;28;20018;-68
2023/07/17 01:46:56;;;;;;;10.35;5.20;;;18.00;99.90;;;;;;5043197;28;20021;-68
2023/07/17 01:49:21;;;;;;;9.85;5.07;;;17.90;99.90;;;;;;5042539;28;20013;-68
2023/07/17 01:51:47;;;;;;;19.00;5.40;;;17.90;99.90;;;;;;5043065;28;20059;-70
2023/07/17 01:54:13;;;;;;;14.25;5.30;;;17.90;99.90;;;;;;5043296;28;20025;-68
2023/07/17 01:56:38;;;;;;;18.05;6.07;;;17.80;99.90;;;;;;5042745;28;20121;-71
2023/07/17 01:59:04;;;;;;;11.63;5.82;;;17.70;99.90;;;;;;5042686;28;20018;-69
2023/07/17 02:01:32;;;;;;;12.82;5.15;;;17.70;99.90;;;;;;5042152;28;20096;-68
2023/07/17 02:03:58;;;;;;;13.27;5.60;;;17.60;99.90;;;;;;5042633;28;20096;-69
2023/07/17 02:06:24;;;;;;;12.55;5.47;;;17.60;99.90;;;;;;5043171;28;20029;-68
2023/07/17 02:08:49;;;;;;;10.98;5.07;;;17.60;99.90;;;;;;5042950;28;20026;-69
2023/07/17 02:11:15;;;;;;;11.07;4.97;;;17.60;99.90;;;;;;5042689;28;20025;-68
2023/07/17 02:13:40;;;;;;;14.73;5.55;;;17.50;99.90;;;;;;5043071;28;20021;-68
2023/07/17 02:16:06;;;;;;;9.98;4.93;;;17.50;99.90;;;;;;5042782;28;20085;-68
2023/07/17 02:18:31;;;;;;;12.38;5.35;;;17.40;99.90;;;;;;5042814;28;20021;-69
2023/07/17 02:20:57;;;;;;;13.55;5.82;;;17.40;99.90;;;;;;5042977;28;20149;-70
2023/07/17 02:23:23;;;;;;;13.68;5.57;;;17.40;99.90;;;;;;5042595;28;20021;-69
2023/07/17 02:25:48;;;;;;;13.32;5.55;;;17.40;99.90;;;;;;5042417;28;20083;-69
2023/07/17 02:28:17;;;;;;;14.15;5.68;;;17.40;99.90;;;;;;5042738;28;20028;-68
2023/07/17 02:30:43;;;;;;;11.30;5.45;;;17.40;99.90;;;;;;5042289;28;20061;-69
2023/07/17 02:33:09;;;;;;;10.88;5.60;;;17.30;99.90;;;;;;5042263;28;20029;-68
2023/07/17 02:35:34;;;;;;;11.30;5.32;;;17.30;99.90;;;;;;5042543;28;20022;-68
2023/07/17 02:38:00;;;;;;;12.50;5.57;;;17.30;99.90;;;;;;5042416;28;20037;-68
2023/07/17 02:40:26;;;;;;;15.10;5.68;;;17.30;99.90;;;;;;5042440;28;20029;-69
2023/07/17 02:42:51;;;;;;;15.07;5.82;;;17.30;99.90;;;;;;5042268;28;20025;-68
2023/07/17 02:45:17;;;;;;;13.30;5.40;;;17.30;99.90;;;;;;5040534;28;20045;-68
2023/07/17 02:47:42;;;;;;;13.55;5.72;;;17.30;99.90;;;;;;5042350;28;20017;-69
2023/07/17 02:50:09;;;;;;;15.55;5.85;;;17.30;99.90;;;;;;5041875;28;20416;-68
2023/07/17 02:52:35;;;;;;;13.32;5.47;;;17.20;99.90;;;;;;5042097;28;20060;-68
2023/07/17 02:55:04;;;;;;;11.48;5.60;;;17.20;99.90;;;;;;5042508;28;20021;-69
2023/07/17 02:57:32;;;;;;;15.65;5.40;;;17.20;99.90;;;;;;5042012;28;20102;-68
2023/07/17 02:59:57;;;;;;;19.15;6.15;;;17.20;99.90;;;;;;5041456;28;20083;-67
2023/07/17 03:02:23;;;;;;;17.08;6.95;;;17.20;99.90;;;;;;5042273;28;20029;-68
2023/07/17 03:04:49;;;;;;;13.25;5.93;;;17.20;99.90;;;;;;5042012;28;20077;-68
2023/07/17 03:07:15;;;;;;;13.82;5.35;;;17.20;99.90;;;;;;5041070;28;20462;-68
2023/07/17 03:09:41;;;;;;;12.98;5.65;;;17.20;99.90;;;;;;5042215;28;20021;-69
2023/07/17 03:12:07;;;;;;;14.75;5.75;;;17.10;99.90;;;;;;5041805;28;20026;-70
2023/07/17 03:14:32;;;;;;;13.15;5.63;;;17.10;99.90;;;;;;5042084;28;20032;-69
2023/07/17 03:16:58;;;;;;;14.93;6.05;;;17.10;99.90;;;;;;5040802;28;20506;-69
2023/07/17 03:19:23;;;;;;;9.63;5.80;;;17.10;99.90;;;;;;5041892;28;20033;-68
2023/07/17 03:21:49;;;;;;;11.73;5.53;;;17.10;99.90;;;;;;5041925;28;20093;-70
2023/07/17 03:24:14;;;;;;;13.07;5.70;;;17.10;99.90;;;;;;5042115;28;20050;-69
2023/07/17 03:26:40;;;;;;;12.48;5.70;;;17.20;99.90;;;;;;5041736;28;20075;-69
2023/07/17 03:29:06;;;;;;;11.95;5.00;;;17.20;99.90;;;;;;5041790;28;20360;-72
2023/07/17 03:31:31;;;;;;;11.15;4.93;;;17.20;99.90;;;;;;5041901;28;20485;-69
2023/07/17 03:33:57;;;;;;;10.90;4.95;;;17.20;99.90;;;;;;5041720;28;20029;-69
2023/07/17 03:36:23;;;;;;;12.75;4.85;;;17.20;99.90;;;;;;5041749;28;20037;-70
2023/07/17 03:38:48;;;;;;;11.23;5.07;;;17.20;99.90;;;;;;5041613;28;20025;-69
2023/07/17 03:41:17;;;;;;;13.55;4.97;;;17.20;99.90;;;;;;5041430;28;20022;-68
2023/07/17 03:43:43;;;;;;;11.85;4.70;;;17.20;99.90;;;;;;5041428;28;20021;-69
2023/07/17 03:46:08;;;;;;;11.63;5.13;;;17.20;99.90;;;;;;5041378;28;20032;-70
2023/07/17 03:48:34;;;;;;;11.80;4.97;;;17.20;99.90;;;;;;5043174;28;20061;-71
2023/07/17 03:50:59;;;;;;;13.77;5.00;;;17.20;99.90;;;;;;5045640;28;20045;-69
2023/07/17 03:53:25;;;;;;;11.63;5.57;;;17.20;99.90;;;;;;5043977;28;20021;-70
2023/07/17 03:55:50;;;;;;;14.32;5.20;;;17.20;99.90;;;;;;5045420;28;20049;-68
2023/07/17 03:58:16;;;;;;;14.65;5.10;;;17.20;99.90;;;;;;5044261;28;20037;-68
2023/07/17 04:00:41;;;;;;;10.95;4.82;;;17.20;99.90;;;;;;5044513;28;20075;-69
2023/07/17 04:03:07;;;;;;;11.25;5.00;;;17.20;99.90;;;;;;5045173;28;20077;-73
2023/07/17 04:05:32;;;;;;;11.60;4.85;;;17.20;99.90;;;;;;5045440;28;20048;-70
2023/07/17 04:07:58;;;;;;;12.07;5.07;;;17.20;99.90;;;;;;5044780;28;20109;-69
2023/07/17 04:10:24;;;;;;;10.75;4.97;;;17.20;99.90;;;;;;5045401;28;21067;-69
2023/07/17 04:12:50;;;;;;;13.95;5.55;;;17.20;99.90;;;;;;5045039;28;20048;-69
2023/07/17 04:15:15;;;;;;;10.88;5.10;;;17.20;99.90;;;;;;5044833;28;20107;-69
2023/07/17 04:17:41;;;;;;;11.20;4.85;;;17.10;99.90;;;;;;5045046;28;20044;-70
2023/07/17 04:20:09;;;;;;;13.02;4.82;;;17.10;99.90;;;;;;5045107;28;20079;-70
2023/07/17 04:22:34;;;;;;;12.45;4.88;;;17.10;99.90;;;;;;5044885;28;20029;-70
2023/07/17 04:25:01;;;;;;;8.93;4.78;;;17.10;99.90;;;;;;5045277;28;20033;-70
2023/07/17 04:27:27;;;;;;;13.23;5.28;;;17.10;99.90;;;;;;5044938;28;20520;-70
2023/07/17 04:29:52;;;;;;;13.05;5.03;;;17.10;99.90;;;;;;5044596;28;20041;-71
2023/07/17 04:32:18;;;;;;;12.15;5.72;;;17.10;99.90;;;;;;5044842;28;20094;-70
2023/07/17 04:34:44;;;;;;;13.80;5.20;;;17.10;99.90;;;;;;5044668;28;20025;-69
2023/07/17 04:37:10;;;;;;;9.18;4.82;;;17.10;99.90;;;;;;5044462;28;20067;-70
2023/07/17 04:39:35;;;;;;;12.68;5.10;;;17.10;99.90;;;;;;5044825;28;20052;-70
2023/07/17 04:42:01;;;;;;;10.52;4.57;;;17.10;99.90;;;;;;5044664;28;20026;-71
2023/07/17 04:44:26;;;;;;;12.57;4.88;;;17.10;99.90;;;;;;5044605;28;20041;-71
2023/07/17 04:46:52;;;;;;;11.15;5.25;;;17.10;99.90;;;;;;5044553;28;20025;-69
2023/07/17 04:49:17;;;;;;;14.45;5.38;;;17.10;99.90;;;;;;5043114;28;20025;-71
2023/07/17 04:51:43;;;;;;;12.00;4.78;;;17.10;99.90;;;;;;5044109;28;20042;-66
2023/07/17 04:54:08;;;;;;;10.45;5.10;;;17.10;99.90;;;;;;5044490;28;20032;-68
2023/07/17 04:56:34;;;;;;;13.77;5.57;;;17.10;99.90;;;;;;5044336;28;20509;-70
2023/07/17 04:59:00;;;;;;;10.77;4.70;;;17.10;99.90;;;;;;5042171;28;20026;-69
2023/07/17 05:01:25;;;;;;;13.65;4.97;;;17.10;99.90;;;;;;5043700;28;20034;-68
2023/07/17 05:03:51;;;;;;;12.50;5.40;;;17.10;99.90;;;;;;5044047;28;20020;-69
2023/07/17 05:06:16;;;;;;;12.82;5.00;;;17.10;99.90;;;;;;5043848;28;20025;-69
2023/07/17 05:08:42;;;;;;;9.27;4.88;;;17.10;99.90;;;;;;5042374;28;20085;-68
2023/07/17 05:11:07;;;;;;;9.20;5.30;;;17.10;99.90;;;;;;5042359;28;20017;-71
2023/07/17 05:13:33;;;;;;;9.27;4.30;;;17.10;99.90;;;;;;5042521;28;20174;-70
2023/07/17 05:15:59;;;;;;;14.23;5.10;;;17.10;99.90;;;;;;5041906;28;20055;-69
2023/07/17 05:18:24;;;;;;;9.80;5.03;;;17.10;99.90;;;;;;5042568;28;20049;-67
2023/07/17 05:20:51;;;;;;;11.68;5.07;;;17.10;99.90;;;;;;5042056;28;20033;-70
2023/07/17 05:23:17;;;;;;;14.82;4.60;;;17.10;99.90;;;;;;5043022;28;20093;-69
2023/07/17 05:25:52;;;;;;;11.77;4.90;;;17.10;99.90;;;;;;5042980;28;20068;-70
2023/07/17 05:28:18;;;;;;;13.82;4.68;;;17.10;99.90;;;;;;5043024;28;20089;-69
2023/07/17 05:30:43;;;;;;;9.20;4.35;;;17.10;99.90;;;;;;5042618;28;20080;-70
2023/07/17 05:33:09;;;;;;;10.45;5.05;;;17.10;99.90;;;;;;5043647;28;20029;-68
2023/07/17 05:35:34;;;;;;;13.43;5.22;;;17.10;99.90;;;;;;5043916;28;20026;-67
2023/07/17 05:38:00;;;;;;;13.23;5.15;;;17.20;99.90;;;;;;5042411;28;20429;-69
2023/07/17 05:40:26;;;;;;;10.80;5.30;;;17.20;99.90;;;;;;5042846;28;20041;-68
2023/07/17 05:42:51;;;;;;;9.52;4.72;;;17.30;99.90;;;;;;5040927;28;20022;-68
2023/07/17 05:45:17;;;;;;;12.73;5.28;;;17.30;99.90;;;;;;5042600;28;20029;-68
2023/07/17 05:47:43;;;;;;;16.15;4.57;;;17.30;99.90;;;;;;5042112;28;20025;-69
2023/07/17 05:50:11;;;;;;;10.57;4.35;;;17.40;99.90;;;;;;5039529;28;20085;-67
2023/07/17 05:52:37;;;;;;;12.82;5.28;;;17.40;99.90;;;;;;5043195;28;20093;-67
2023/07/17 05:55:04;;;;;;;12.23;4.45;;;17.40;99.90;;;;;;5042677;28;20022;-75
2023/07/17 05:57:29;;;;;;;13.18;4.90;;;17.50;99.90;;;;;;5043391;28;20049;-68
2023/07/17 05:59:55;;;;;;;13.30;5.15;;;17.50;99.90;;;;;;5041406;28;20032;-68
2023/07/17 06:02:20;;;;;;;15.20;4.85;;;17.50;99.90;;;;;;5043178;28;20033;-68
2023/07/17 06:04:46;;;;;;;12.48;4.72;;;17.50;99.90;;;;;;5042135;28;20037;-68
2023/07/17 06:07:13;;;;;;;11.45;4.40;;;17.60;99.90;;;;;;5041340;28;20064;-69
2023/07/17 06:09:39;;;;;;;9.13;4.57;;;17.60;99.90;;;;;;5042967;28;20060;-69
2023/07/17 06:12:05;;;;;;;12.40;5.13;;;17.60;99.90;;;;;;5040837;28;20475;-68
2023/07/17 06:14:31;;;;;;;13.85;4.72;;;17.70;99.90;;;;;;5040124;28;20029;-67
2023/07/17 06:16:56;;;;;;;10.13;4.60;;;17.70;99.90;;;;;;5039712;28;20489;-68
2023/07/17 06:19:22;;;;;;;12.82;4.82;;;17.70;99.90;;;;;;5040684;28;20089;-70
2023/07/17 06:21:47;;;;;;;12.60;4.80;;;17.70;99.90;;;;;;5042892;28;20034;-67
2023/07/17 06:24:13;;;;;;;13.45;4.95;;;17.80;99.90;;;;;;5042919;28;20498;-68
2023/07/17 06:26:38;;;;;;;12.57;4.53;;;17.80;99.90;;;;;;5043001;28;20018;-68
2023/07/17 06:29:05;;;;;;;14.40;4.70;;;17.90;99.90;;;;;;5042687;28;20033;-69
2023/07/17 06:31:31;;;;;;;8.05;4.40;;;17.90;99.90;;;;;;5042809;28;20021;-69
2023/07/17 06:33:57;;;;;;;14.10;4.57;;;18.00;99.90;;;;;;5043215;28;20037;-67
2023/07/17 06:36:23;;;;;;;11.43;5.13;;;18.00;99.90;;;;;;5041662;28;20053;-66
2023/07/17 06:38:48;;;;;;;12.98;5.05;;;18.00;99.90;;;;;;5041671;28;20397;-70
2023/07/17 06:41:14;;;;;;;12.85;4.72;;;18.00;99.90;;;;;;5042633;28;20022;-68
2023/07/17 06:43:40;;;;;;;14.77;5.07;;;18.10;99.90;;;;;;5041415;28;20025;-70
2023/07/17 06:46:06;;;;;;;10.93;4.85;;;18.10;99.90;;;;;;5042619;28;20029;-69
2023/07/17 06:48:31;;;;;;;16.48;4.75;;;18.10;99.90;;;;;;5041295;28;20055;-70
2023/07/17 06:50:57;;;;;;;12.65;4.25;;;18.20;99.90;;;;;;5040369;28;20076;-68
2023/07/17 06:53:23;;;;;;;13.50;5.10;;;18.20;99.90;;;;;;5041350;28;20418;-69
2023/07/17 06:56:00;;;;;;;10.98;5.18;;;18.30;99.90;;;;;;5042029;28;20021;-70
2023/07/17 06:58:26;;;;;;;11.32;4.60;;;18.30;99.90;;;;;;5042359;28;20063;-69
2023/07/17 07:00:59;;;;;;;9.85;4.50;;;18.40;99.90;;;;;;5040966;28;20049;-69
2023/07/17 07:03:26;;;;;;;11.13;4.28;;;18.40;99.90;;;;;;5040482;28;20683;-70
2023/07/17 07:06:00;;;;;;;13.15;4.22;;;18.50;99.90;;;;;;5040949;28;20034;-67
2023/07/17 07:08:30;;;;;;;10.52;4.28;;;18.60;99.90;;;;;;5042329;28;20037;-69
2023/07/17 07:10:58;;;;;;;11.20;4.35;;;18.50;99.90;;;;;;5040832;28;20029;-70
2023/07/17 07:13:25;;;;;;;9.85;4.10;;;18.60;99.90;;;;;;5042201;28;20446;-69
2023/07/17 07:15:51;;;;;;;9.82;3.67;;;18.60;99.90;;;;;;5040451;28;20451;-71
2023/07/17 07:18:18;;;;;;;15.18;4.03;;;18.70;99.90;;;;;;5039655;28;20041;-68
2023/07/17 07:20:44;;;;;;;9.65;4.22;;;18.70;99.90;;;;;;5037122;28;20789;-67
2023/07/17 07:23:10;;;;;;;9.63;3.90;;;18.60;99.90;;;;;;5034201;28;20052;-68
2023/07/17 07:25:36;;;;;;;11.93;3.67;;;18.70;99.90;;;;;;5041126;28;20454;-69
2023/07/17 07:28:01;;;;;;;12.45;3.85;;;18.60;99.90;;;;;;5040431;28;20021;-68
2023/07/17 07:30:28;;;;;;;12.23;3.97;;;18.70;99.90;;;;;;5041356;28;20044;-73
2023/07/17 07:32:54;;;;;;;15.27;3.60;;;18.70;99.90;;;;;;5038723;28;20036;-68
2023/07/17 07:35:20;;;;;;;10.38;3.60;;;18.70;99.90;;;;;;5039819;28;20021;-70
2023/07/17 07:37:45;;;;;;;9.77;3.67;;;18.70;99.90;;;;;;5034475;28;20038;-67
2023/07/17 07:40:12;;;;;;;11.07;3.72;;;18.70;99.90;;;;;;5039359;28;20036;-68
2023/07/17 07:42:42;;;;;;;10.65;3.60;;;18.80;99.90;;;;;;5041275;28;20030;-68
2023/07/17 07:45:12;;;;;;;14.55;3.72;;;18.80;99.90;;;;;;5038070;28;20037;-70
2023/07/17 07:47:39;;;;;;;11.00;3.22;;;19.00;99.90;;;;;;5036793;28;20041;-68
2023/07/17 07:50:05;;;;;;;13.02;4.00;;;19.10;99.90;;;;;;5043881;28;20041;-71
2023/07/17 07:52:31;;;;;;;13.95;3.55;;;19.20;99.90;;;;;;5040598;28;20029;-68
2023/07/17 07:54:57;;;;;;;15.70;4.10;;;19.30;99.90;;;;;;5040310;28;20084;-68
2023/07/17 07:57:22;;;;;;;10.02;3.35;;;19.30;99.90;;;;;;5040410;28;20067;-66
2023/07/17 07:59:51;;;;;;;8.45;3.40;;;19.40;99.90;;;;;;5040037;28;20687;-69
2023/07/17 08:02:17;;;;;;;8.77;3.72;;;19.50;99.90;;;;;;5039766;28;20044;-68
2023/07/17 08:04:43;;;;;;;8.02;3.45;;;19.50;99.90;;;;;;5040355;28;20063;-68
2023/07/17 08:07:09;;;;;;;14.75;3.65;;;19.50;99.90;;;;;;5039204;28;20056;-69
2023/07/17 08:09:35;;;;;;;11.57;3.78;;;19.50;99.90;;;;;;5040038;28;20445;-69
2023/07/17 08:12:01;;;;;;;8.07;3.70;;;19.60;99.90;;;;;;5040080;28;20025;-69
2023/07/17 08:14:26;;;;;;;12.50;3.80;;;19.70;99.90;;;;;;5038642;28;20037;-73
2023/07/17 08:16:52;;;;;;;11.15;3.80;;;19.80;99.90;;;;;;5036730;28;20048;-68
2023/07/17 08:19:19;;;;;;;10.93;4.13;;;19.80;99.90;;;;;;5037115;28;20075;-66
2023/07/17 08:21:45;;;;;;;12.93;4.25;;;19.90;99.90;;;;;;5037843;28;20029;-71
2023/07/17 08:24:11;;;;;;;8.95;3.88;;;20.00;99.90;;;;;;5039035;28;20022;-69
2023/07/17 08:26:40;;;;;;;13.85;3.95;;;19.80;99.90;;;;;;5039990;28;20024;-68
2023/07/17 08:29:06;;;;;;;10.68;3.95;;;19.70;99.90;;;;;;5039214;28;20014;-68
2023/07/17 08:31:32;;;;;;;12.30;4.35;;;19.70;99.90;;;;;;5037144;28;20466;-71
2023/07/17 08:34:03;;;;;;;10.60;4.35;;;19.70;99.90;;;;;;5036762;28;20029;-70
2023/07/17 08:36:30;;;;;;;13.00;4.53;;;19.80;99.90;;;;;;5040541;28;20741;-69
2023/07/17 08:38:56;;;;;;;12.23;3.95;;;19.80;99.90;;;;;;5040806;28;20045;-71
2023/07/17 08:41:22;;;;;;;13.55;4.47;;;19.80;99.90;;;;;;5043206;28;20034;-69
2023/07/17 08:43:51;;;;;;;10.38;4.03;;;19.80;99.90;;;;;;5039300;28;20037;-70
2023/07/17 08:46:17;;;;;;;14.02;4.28;;;20.00;99.90;;;;;;5042487;28;20135;-69
2023/07/17 08:48:44;;;;;;;11.55;4.10;;;20.00;99.90;;;;;;5040843;28;20045;-70
2023/07/17 08:51:11;;;;;;;20.77;4.70;;;20.10;99.90;;;;;;5043492;28;20402;-68
2023/07/17 08:53:41;;;;;;;11.75;4.60;;;20.10;99.90;;;;;;5040854;28;20430;-70
2023/07/17 08:56:07;;;;;;;10.52;4.35;;;20.10;99.90;;;;;;5042520;28;20069;-68
2023/07/17 08:58:33;;;;;;;11.80;4.20;;;20.10;99.90;;;;;;5044895;28;20026;-69
2023/07/17 09:00:59;;;;;;;13.00;4.10;;;20.10;99.90;;;;;;5045302;28;20093;-68
2023/07/17 09:03:25;;;;;;;12.48;4.20;;;20.10;99.90;;;;;;5042408;28;20033;-71
2023/07/17 09:05:50;;;;;;;10.93;4.63;;;20.20;99.90;;;;;;5042395;28;20025;-69
2023/07/17 09:08:16;;;;;;;10.10;4.38;;;20.30;99.90;;;;;;5044054;28;20097;-68
2023/07/17 09:10:42;;;;;;;12.32;4.35;;;20.30;99.90;;;;;;5044096;28;20033;-67
2023/07/17 09:13:08;;;;;;;10.80;4.78;;;20.30;99.90;;;;;;5041609;28;20045;-70
2023/07/17 09:15:35;;;;;;;12.70;4.30;;;20.30;99.90;;;;;;5041432;28;20017;-68
2023/07/17 09:18:02;;;;;;;15.15;4.75;;;20.30;99.90;;;;;;5040332;28;20124;-68
2023/07/17 09:20:28;;;;;;;13.18;4.43;;;20.30;99.90;;;;;;5042314;28;20379;-67
2023/07/17 09:22:56;;;;;;;12.35;4.88;;;20.30;99.90;;;;;;5042656;28;20053;-67
2023/07/17 09:25:29;;;;;;;11.55;4.57;;;20.50;99.90;;;;;;5040903;28;20493;-67
2023/07/17 09:27:55;;;;;;;10.27;4.57;;;20.60;99.90;;;;;;5042029;28;20017;-71
2023/07/17 09:30:22;;;;;;;13.15;4.68;;;20.70;99.90;;;;;;5043074;28;20076;-67
2023/07/17 09:32:49;;;;;;;10.05;4.65;;;20.80;99.90;;;;;;5043202;28;20108;-69
2023/07/17 09:35:19;;;;;;;10.00;4.55;;;20.80;99.90;;;;;;5044214;28;20033;-69
2023/07/17 09:37:45;;;;;;;13.35;4.35;;;20.70;99.90;;;;;;5042223;28;20173;-68
2023/07/17 09:40:12;;;;;;;10.98;4.75;;;20.70;99.90;;;;;;5042646;28;20022;-68
2023/07/17 09:42:42;;;;;;;12.30;5.07;;;20.60;99.90;;;;;;5040529;28;20040;-70
2023/07/17 09:45:11;;;;;;;11.00;4.63;;;20.50;99.90;;;;;;5040928;28;20117;-69
2023/07/17 09:47:39;;;;;;;15.65;4.57;;;20.50;99.90;;;;;;5041071;28;20056;-69
2023/07/17 09:50:07;;;;;;;14.82;4.95;;;20.50;99.90;;;;;;5040906;28;20033;-71
2023/07/17 09:52:32;;;;;;;17.25;4.85;;;20.50;99.90;;;;;;5041047;28;20562;-69
2023/07/17 09:55:00;;;;;;;12.73;5.10;;;20.30;99.90;;;;;;5041736;28;20048;-71
2023/07/17 09:57:33;;;;;;;13.95;4.60;;;20.30;99.90;;;;;;5041077;28;20490;-71
2023/07/17 10:00:05;;;;;;;12.52;5.03;;;20.20;99.90;;;;;;5041086;28;20068;-68
2023/07/17 10:02:35;;;;;;;11.68;4.68;;;20.10;99.90;;;;;;5040453;28;20030;-68
2023/07/17 10:05:05;;;;;;;11.27;4.95;;;20.20;99.90;;;;;;5041019;28;20021;-67
2023/07/17 10:07:35;;;;;;;12.27;4.40;;;20.40;99.90;;;;;;5035912;28;20044;-70
2023/07/17 10:10:01;;;;;;;9.32;4.05;;;20.50;99.90;;;;;;5033987;28;20040;-70
2023/07/17 10:12:28;;;;;;;12.25;4.50;;;20.70;99.90;;;;;;5038031;28;20029;-69
2023/07/17 10:14:54;;;;;;;13.65;4.40;;;20.80;99.90;;;;;;5040619;28;20017;-70
2023/07/17 10:17:23;;;;;;;10.18;4.43;;;20.90;99.90;;;;;;5041532;28;20037;-68
2023/07/17 10:19:49;;;;;;;13.18;4.55;;;21.00;99.90;;;;;;5040864;28;20664;-68
2023/07/17 10:22:15;;;;;;;14.00;4.78;;;21.00;99.90;;;;;;5039450;28;20040;-68
2023/07/17 10:24:41;;;;;;;13.40;4.85;;;21.00;99.90;;;;;;5035872;28;20033;-69
2023/07/17 10:27:07;;;;;;;9.73;4.65;;;20.90;99.90;;;;;;5040266;28;20033;-67
2023/07/17 10:29:44;;;;;;;10.35;4.70;;;20.80;99.90;;;;;;5033775;28;20079;-69
2023/07/17 10:32:12;;;;;;;12.23;4.60;;;20.70;99.90;;;;;;5040805;28;20037;-71
2023/07/17 10:34:52;;;;;;;11.38;4.78;;;20.80;99.90;;;;;;5042163;28;20017;-69
2023/07/17 10:37:38;;;;;;;15.13;4.80;;;20.80;99.90;;;;;;5040394;28;20041;-69
2023/07/17 10:40:05;;;;;;;12.52;4.53;;;20.80;99.90;;;;;;5042236;28;20024;-69
2023/07/17 10:42:32;;;;;;;9.05;3.92;;;20.90;99.90;;;;;;5043776;28;20025;-68
2023/07/17 10:45:11;;;;;;;12.48;4.38;;;20.90;99.90;;;;;;5040921;28;20074;-67
2023/07/17 10:47:37;;;;;;;13.85;3.97;;;20.90;99.90;;;;;;5040909;28;20025;-68
2023/07/17 10:50:06;;;;;;;10.60;4.22;;;20.90;99.90;;;;;;5042025;28;20081;-70
2023/07/17 10:52:33;;;;;;;13.68;4.88;;;20.80;99.90;;;;;;5041842;28;20109;-68
2023/07/17 10:55:03;;;;;;;15.80;5.10;;;20.80;99.90;;;;;;5041835;28;20028;-69
2023/07/17 10:57:29;;;;;;;11.35;4.30;;;20.80;99.90;;;;;;5040778;28;20033;-73
2023/07/17 10:59:56;;;;;;;10.55;4.30;;;20.80;99.90;;;;;;5041887;28;20089;-68
2023/07/17 11:02:25;;;;;;;14.38;4.93;;;20.70;99.90;;;;;;5041696;28;20021;-69
2023/07/17 11:04:58;;;;;;;14.13;4.47;;;20.60;99.90;;;;;;5040646;28;20025;-68
2023/07/17 11:07:24;;;;;;;11.48;4.38;;;20.60;99.90;;;;;;5041591;28;20035;-71
2023/07/17 11:09:50;;;;;;;13.65;4.35;;;20.90;99.90;;;;;;5040698;28;20032;-67
2023/07/17 11:12:19;;;;;;;5.38;2.83;;;21.20;99.90;;;;;;5041008;28;20057;-69
2023/07/17 11:14:44;;;;;;;5.32;2.55;;;21.30;99.90;;;;;;5041265;28;20025;-67
2023/07/17 11:17:11;;;;;;;8.20;2.15;;;21.30;99.90;;;;;;5041653;28;20038;-67
2023/07/17 11:19:37;;;;;;;7.05;3.03;;;21.00;99.90;;;;;;5041033;28;20486;-68
2023/07/17 11:22:03;;;;;;;8.10;3.10;;;20.70;99.90;;;;;;5041390;28;20085;-67
2023/07/17 11:24:30;;;;;;;6.38;2.90;;;20.50;99.90;;;;;;5041897;28;20089;-70
2023/07/17 11:26:58;;;;;;;10.30;3.00;;;20.50;99.90;;;;;;5041209;28;20032;-69
2023/07/17 11:29:24;;;;;;;5.65;2.53;;;20.50;99.90;;;;;;5040678;28;20029;-68
2023/07/17 11:31:56;;;;;;;5.88;2.40;;;20.30;99.90;;;;;;5041265;28;20087;-72
2023/07/17 11:34:22;;;;;;;6.47;2.75;;;20.10;99.90;;;;;;5040963;28;20686;-69
2023/07/17 11:36:48;;;;;;;8.90;3.40;;;19.80;99.90;;;;;;5040418;28;20040;-71
2023/07/17 11:39:17;;;;;;;9.00;3.53;;;19.20;99.90;;;;;;5039849;28;20022;-70
2023/07/17 11:41:48;;;;;;;11.15;2.90;;;18.50;99.90;;;;;;5039604;28;20076;-69
2023/07/17 11:44:16;;;;;;;6.60;3.45;;;18.00;99.90;;;;;;5038284;28;20028;-72
2023/07/17 11:46:42;;;;;;;8.85;2.85;;;17.60;99.90;;;;;;5038715;28;20034;-71
2023/07/17 11:49:09;;;;;;;9.80;3.55;;;17.30;99.90;;;;;;5039018;28;20026;-69
2023/07/17 11:51:41;;;;;;;7.03;3.35;;;17.10;99.90;;;;;;5039165;28;20125;-69
2023/07/17 11:54:06;;;;;;;6.75;3.60;;;17.00;99.90;;;;;;5041064;28;20095;-68
2023/07/17 11:56:34;;;;;;;5.32;2.95;;;17.10;99.90;;;;;;5040865;28;20402;-70
2023/07/17 11:58:59;;;;;;;8.35;3.65;;;17.30;99.90;;;;;;5040537;28;20017;-68
2023/07/17 12:01:25;;;;;;;8.38;3.80;;;17.60;99.90;;;;;;5039712;28;20489;-68
2023/07/17 12:03:51;;;;;;;9.02;4.40;;;17.70;99.90;;;;;;5040431;28;20025;-69
2023/07/17 12:06:16;;;;;;;10.85;4.50;;;17.80;99.90;;;;;;5039769;28;20037;-68
2023/07/17 12:08:43;;;;;;;12.10;4.30;;;17.80;99.90;;;;;;5039441;28;20103;-68
2023/07/17 12:11:09;;;;;;;10.18;3.88;;;17.80;99.90;;;;;;5044689;28;20057;-68
2023/07/17 12:13:35;;;;;;;11.32;4.13;;;17.80;99.90;;;;;;5043987;28;20052;-71
2023/07/17 12:16:00;;;;;;;9.80;3.35;;;17.90;99.90;;;;;;5044521;28;20077;-68
2023/07/17 12:18:26;;;;;;;7.50;3.55;;;17.90;99.90;;;;;;5044866;28;20044;-68
2023/07/17 12:20:52;;;;;;;9.48;3.90;;;17.90;99.90;;;;;;5044416;28;20029;-67
2023/07/17 12:23:18;;;;;;;7.97;3.70;;;18.00;99.90;;;;;;5045034;28;20033;-67
2023/07/17 12:25:45;;;;;;;9.18;3.88;;;18.00;99.90;;;;;;5043500;28;20026;-68
2023/07/17 12:28:11;;;;;;;9.50;4.05;;;18.00;99.90;;;;;;5044103;28;20067;-67
2023/07/17 12:30:36;;;;;;;6.63;3.97;;;18.00;99.90;;;;;;5044287;28;20097;-67
2023/07/17 12:33:02;;;;;;;9.32;4.25;;;18.10;99.90;;;;;;5045012;28;20029;-68
2023/07/17 12:35:28;;;;;;;7.75;4.03;;;18.10;99.90;;;;;;5044592;28;20037;-67